sensor_id;sensor_type;location;lat;lon;timestamp;pressure;altitude;pressure_sealevel;temperature;humidity
9249;BME280;4660;41.768;26.198;2023-02-02T00:00:30;101042.56;;;1.44;100.00
9249;BME280;4660;41.768;26.198;2023-02-02T00:02:55;101031.97;;;1.44;100.00
9249;BME280;4660;41.768;26.198;2023-02-02T00:05:21;101048.94;;;1.40;100.00
9249;BME280;4660;41.768;26.198;2023-02-02T00:07:46;101040.50;;;1.31;100.00
9249;BME280;4660;41.768;26.198;2023-02-02T00:10:12;101039.84;;;1.45;100.00
9249;BME280;4660;41.768;26.198;2023-02-02T00:12:37;101030.41;;;1.21;100.00
9249;BME280;4660;41.768;26.198;2023-02-02T00:15:03;101043.72;;;1.38;100.00
9249;BME280;4660;41.768;26.198;2023-02-02T00:17:29;101045.03;;;1.29;100.00
9249;BME280;4660;41.768;26.198;2023-02-02T00:19:54;101037.09;;;1.10;100.00
9249;BME280;4660;41.768;26.198;2023-02-02T00:22:20;101032.50;;;1.14;100.00
9249;BME280;4660;41.768;26.198;2023-02-02T00:24:46;101017.06;;;1.05;100.00
9249;BME280;4660;41.768;26.198;2023-02-02T00:27:11;101013.09;;;1.14;100.00
9249;BME280;4660;41.768;26.198;2023-02-02T00:29:37;101018.19;;;0.99;100.00
9249;BME280;4660;41.768;26.198;2023-02-02T00:32:04;101001.81;;;1.10;100.00
9249;BME280;4660;41.768;26.198;2023-02-02T00:34:30;101003.53;;;1.28;100.00
9249;BME280;4660;41.768;26.198;2023-02-02T00:36:55;101003.72;;;1.43;100.00
9249;BME280;4660;41.768;26.198;2023-02-02T00:39:23;101020.91;;;1.53;100.00
9249;BME280;4660;41.768;26.198;2023-02-02T00:41:52;101024.75;;;1.28;100.00
9249;BME280;4660;41.768;26.198;2023-02-02T00:44:18;101014.75;;;1.16;100.00
9249;BME280;4660;41.768;26.198;2023-02-02T00:47:03;101019.97;;;1.18;100.00
9249;BME280;4660;41.768;26.198;2023-02-02T00:49:29;101021.25;;;1.28;100.00
9249;BME280;4660;41.768;26.198;2023-02-02T00:51:54;100987.13;;;1.22;100.00
9249;BME280;4660;41.768;26.198;2023-02-02T00:54:20;101005.41;;;1.26;100.00
9249;BME280;4660;41.768;26.198;2023-02-02T00:56:45;101002.56;;;1.31;100.00
9249;BME280;4660;41.768;26.198;2023-02-02T00:59:11;101017.53;;;1.49;100.00
9249;BME280;4660;41.768;26.198;2023-02-02T01:01:36;101003.19;;;1.53;100.00
9249;BME280;4660;41.768;26.198;2023-02-02T01:04:02;101003.38;;;1.68;100.00
9249;BME280;4660;41.768;26.198;2023-02-02T01:06:28;100988.63;;;1.79;100.00
9249;BME280;4660;41.768;26.198;2023-02-02T01:08:53;101011.94;;;1.55;100.00
9249;BME280;4660;41.768;26.198;2023-02-02T01:11:19;101007.38;;;1.40;100.00
9249;BME280;4660;41.768;26.198;2023-02-02T01:13:44;101007.09;;;1.29;100.00
9249;BME280;4660;41.768;26.198;2023-02-02T01:16:10;101001.13;;;0.88;100.00
9249;BME280;4660;41.768;26.198;2023-02-02T01:18:36;101005.75;;;0.82;100.00
9249;BME280;4660;41.768;26.198;2023-02-02T01:21:04;100997.75;;;0.65;100.00
9249;BME280;4660;41.768;26.198;2023-02-02T01:23:31;101008.00;;;0.73;100.00
9249;BME280;4660;41.768;26.198;2023-02-02T01:26:00;100994.88;;;0.70;100.00
9249;BME280;4660;41.768;26.198;2023-02-02T01:28:26;101003.34;;;0.59;100.00
9249;BME280;4660;41.768;26.198;2023-02-02T01:30:52;101001.63;;;0.58;100.00
9249;BME280;4660;41.768;26.198;2023-02-02T01:33:18;101007.56;;;0.82;100.00
9249;BME280;4660;41.768;26.198;2023-02-02T01:35:50;101004.09;;;0.99;100.00
9249;BME280;4660;41.768;26.198;2023-02-02T01:38:17;101012.19;;;0.96;100.00
9249;BME280;4660;41.768;26.198;2023-02-02T01:40:51;100994.72;;;0.92;100.00
9249;BME280;4660;41.768;26.198;2023-02-02T01:43:27;100999.25;;;0.90;100.00
9249;BME280;4660;41.768;26.198;2023-02-02T01:45:54;101007.25;;;0.69;100.00
9249;BME280;4660;41.768;26.198;2023-02-02T01:48:31;100986.56;;;0.77;100.00
9249;BME280;4660;41.768;26.198;2023-02-02T01:51:02;101011.63;;;0.89;100.00
9249;BME280;4660;41.768;26.198;2023-02-02T01:53:29;101008.78;;;0.94;100.00
9249;BME280;4660;41.768;26.198;2023-02-02T01:55:55;101017.38;;;0.80;100.00
9249;BME280;4660;41.768;26.198;2023-02-02T01:58:33;101022.78;;;0.77;100.00
9249;BME280;4660;41.768;26.198;2023-02-02T02:00:59;101023.25;;;0.87;100.00
9249;BME280;4660;41.768;26.198;2023-02-02T02:03:27;101037.34;;;0.87;100.00
9249;BME280;4660;41.768;26.198;2023-02-02T02:05:57;101018.34;;;0.77;100.00
9249;BME280;4660;41.768;26.198;2023-02-02T02:08:32;101008.84;;;0.73;100.00
9249;BME280;4660;41.768;26.198;2023-02-02T02:10:59;101012.34;;;0.55;100.00
9249;BME280;4660;41.768;26.198;2023-02-02T02:13:26;101035.66;;;0.47;100.00
9249;BME280;4660;41.768;26.198;2023-02-02T02:16:28;101017.91;;;0.49;100.00
9249;BME280;4660;41.768;26.198;2023-02-02T02:19:10;101030.50;;;0.44;100.00
9249;BME280;4660;41.768;26.198;2023-02-02T02:36:18;101049.00;;;1.02;100.00
9249;BME280;4660;41.768;26.198;2023-02-02T02:38:50;101027.09;;;0.98;100.00
9249;BME280;4660;41.768;26.198;2023-02-02T02:41:21;101044.69;;;1.18;100.00
9249;BME280;4660;41.768;26.198;2023-02-02T02:44:02;101032.16;;;1.22;100.00
9249;BME280;4660;41.768;26.198;2023-02-02T02:46:29;101057.69;;;1.42;100.00
9249;BME280;4660;41.768;26.198;2023-02-02T02:48:59;101045.66;;;1.34;100.00
9249;BME280;4660;41.768;26.198;2023-02-02T02:51:40;101038.13;;;1.44;100.00
9249;BME280;4660;41.768;26.198;2023-02-02T02:54:06;101021.28;;;1.45;100.00
9249;BME280;4660;41.768;26.198;2023-02-02T03:02:32;101048.69;;;1.80;100.00
9249;BME280;4660;41.768;26.198;2023-02-02T03:10:35;101041.19;;;1.54;100.00
9249;BME280;4660;41.768;26.198;2023-02-02T03:13:06;101049.78;;;1.59;100.00
9249;BME280;4660;41.768;26.198;2023-02-02T03:15:32;101044.69;;;1.54;100.00
9249;BME280;4660;41.768;26.198;2023-02-02T03:17:58;101032.47;;;1.86;100.00
9249;BME280;4660;41.768;26.198;2023-02-02T03:20:24;101017.56;;;1.67;100.00
9249;BME280;4660;41.768;26.198;2023-02-02T03:22:50;101000.50;;;1.72;100.00
9249;BME280;4660;41.768;26.198;2023-02-02T03:25:15;101006.41;;;1.60;100.00
9249;BME280;4660;41.768;26.198;2023-02-02T03:27:41;100990.94;;;1.85;100.00
9249;BME280;4660;41.768;26.198;2023-02-02T03:30:10;101015.09;;;2.14;100.00
9249;BME280;4660;41.768;26.198;2023-02-02T03:32:37;101006.06;;;2.18;100.00
9249;BME280;4660;41.768;26.198;2023-02-02T03:35:03;101023.38;;;2.25;100.00
9249;BME280;4660;41.768;26.198;2023-02-02T03:37:29;100993.47;;;1.88;100.00
9249;BME280;4660;41.768;26.198;2023-02-02T03:39:54;101020.28;;;1.82;100.00
9249;BME280;4660;41.768;26.198;2023-02-02T03:42:20;100994.00;;;1.95;100.00
9249;BME280;4660;41.768;26.198;2023-02-02T03:44:45;101000.00;;;1.64;100.00
9249;BME280;4660;41.768;26.198;2023-02-02T03:47:11;100992.59;;;1.53;100.00
9249;BME280;4660;41.768;26.198;2023-02-02T03:49:36;101008.13;;;1.44;100.00
9249;BME280;4660;41.768;26.198;2023-02-02T03:52:02;101008.41;;;1.55;100.00
9249;BME280;4660;41.768;26.198;2023-02-02T03:54:29;100991.56;;;1.56;100.00
9249;BME280;4660;41.768;26.198;2023-02-02T03:56:55;100986.28;;;1.56;100.00
9249;BME280;4660;41.768;26.198;2023-02-02T03:59:20;100997.75;;;1.74;100.00
9249;BME280;4660;41.768;26.198;2023-02-02T04:01:46;100981.59;;;1.78;100.00
9249;BME280;4660;41.768;26.198;2023-02-02T04:04:11;100988.75;;;1.42;100.00
9249;BME280;4660;41.768;26.198;2023-02-02T04:06:37;100990.09;;;1.68;100.00
9249;BME280;4660;41.768;26.198;2023-02-02T04:09:02;100989.72;;;1.75;100.00
9249;BME280;4660;41.768;26.198;2023-02-02T04:11:28;100994.00;;;1.95;100.00
9249;BME280;4660;41.768;26.198;2023-02-02T04:13:54;100999.41;;;1.93;100.00
9249;BME280;4660;41.768;26.198;2023-02-02T04:16:20;100998.53;;;1.93;100.00
9249;BME280;4660;41.768;26.198;2023-02-02T04:18:45;100985.25;;;1.76;100.00
9249;BME280;4660;41.768;26.198;2023-02-02T04:21:11;100990.47;;;1.43;100.00
9249;BME280;4660;41.768;26.198;2023-02-02T04:23:36;100998.59;;;1.40;100.00
9249;BME280;4660;41.768;26.198;2023-02-02T04:26:02;101007.66;;;1.70;100.00
9249;BME280;4660;41.768;26.198;2023-02-02T04:28:28;100999.38;;;1.76;100.00
9249;BME280;4660;41.768;26.198;2023-02-02T04:30:54;100979.19;;;1.74;100.00
9249;BME280;4660;41.768;26.198;2023-02-02T04:33:21;100995.16;;;1.89;100.00
9249;BME280;4660;41.768;26.198;2023-02-02T04:35:47;100985.59;;;1.87;100.00
9249;BME280;4660;41.768;26.198;2023-02-02T04:38:13;100992.50;;;1.89;100.00
9249;BME280;4660;41.768;26.198;2023-02-02T04:40:39;100996.88;;;1.90;100.00
9249;BME280;4660;41.768;26.198;2023-02-02T04:43:05;100991.66;;;1.89;100.00
9249;BME280;4660;41.768;26.198;2023-02-02T04:45:31;100994.63;;;1.83;100.00
9249;BME280;4660;41.768;26.198;2023-02-02T04:47:56;101015.06;;;1.63;100.00
9249;BME280;4660;41.768;26.198;2023-02-02T04:50:22;101019.00;;;1.37;100.00
9249;BME280;4660;41.768;26.198;2023-02-02T04:52:47;101014.03;;;1.49;100.00
9249;BME280;4660;41.768;26.198;2023-02-02T04:55:13;100978.81;;;1.10;100.00
9249;BME280;4660;41.768;26.198;2023-02-02T04:57:39;101006.91;;;1.32;100.00
9249;BME280;4660;41.768;26.198;2023-02-02T05:00:05;101001.72;;;1.12;100.00
9249;BME280;4660;41.768;26.198;2023-02-02T05:02:34;100998.78;;;0.99;100.00
9249;BME280;4660;41.768;26.198;2023-02-02T05:05:01;101005.97;;;0.97;100.00
9249;BME280;4660;41.768;26.198;2023-02-02T05:07:28;101016.56;;;1.33;100.00
9249;BME280;4660;41.768;26.198;2023-02-02T05:09:56;101007.28;;;1.24;100.00
9249;BME280;4660;41.768;26.198;2023-02-02T05:12:21;100991.31;;;0.90;100.00
9249;BME280;4660;41.768;26.198;2023-02-02T05:14:47;101003.03;;;1.03;100.00
9249;BME280;4660;41.768;26.198;2023-02-02T05:17:13;101013.19;;;1.12;100.00
9249;BME280;4660;41.768;26.198;2023-02-02T05:19:41;101012.69;;;1.04;100.00
9249;BME280;4660;41.768;26.198;2023-02-02T05:22:07;100998.88;;;0.78;100.00
9249;BME280;4660;41.768;26.198;2023-02-02T05:24:33;100987.22;;;0.64;100.00
9249;BME280;4660;41.768;26.198;2023-02-02T05:27:00;101001.19;;;0.67;100.00
9249;BME280;4660;41.768;26.198;2023-02-02T05:29:28;101017.22;;;0.83;100.00
9249;BME280;4660;41.768;26.198;2023-02-02T05:31:57;101028.22;;;0.93;100.00
9249;BME280;4660;41.768;26.198;2023-02-02T05:34:25;101023.25;;;0.87;100.00
9249;BME280;4660;41.768;26.198;2023-02-02T05:37:05;101005.22;;;1.12;100.00
9249;BME280;4660;41.768;26.198;2023-02-02T05:39:36;100970.59;;;0.98;100.00
9249;BME280;4660;41.768;26.198;2023-02-02T05:42:03;101028.47;;;1.43;100.00
9249;BME280;4660;41.768;26.198;2023-02-02T05:44:50;100965.66;;;0.90;100.00
9249;BME280;4660;41.768;26.198;2023-02-02T05:47:18;100944.53;;;0.52;100.00
9249;BME280;4660;41.768;26.198;2023-02-02T05:49:48;101032.22;;;1.20;100.00
9249;BME280;4660;41.768;26.198;2023-02-02T05:52:32;100897.31;;;0.24;100.00
9249;BME280;4660;41.768;26.198;2023-02-02T05:55:20;101039.38;;;1.18;100.00
9249;BME280;4660;41.768;26.198;2023-02-02T05:57:49;100902.50;;;0.64;100.00
9249;BME280;4660;41.768;26.198;2023-02-02T06:00:16;100971.75;;;1.28;100.00
9249;BME280;4660;41.768;26.198;2023-02-02T06:02:42;100899.38;;;0.92;100.00
9249;BME280;4660;41.768;26.198;2023-02-02T06:05:08;100905.84;;;0.86;100.00
9249;BME280;4660;41.768;26.198;2023-02-02T06:07:35;100903.72;;;0.75;100.00
9249;BME280;4660;41.768;26.198;2023-02-02T06:10:03;100920.91;;;0.67;100.00
9249;BME280;4660;41.768;26.198;2023-02-02T06:12:29;101045.72;;;1.69;100.00
9249;BME280;4660;41.768;26.198;2023-02-02T06:15:17;101053.47;;;1.37;100.00
9249;BME280;4660;41.768;26.198;2023-02-02T06:17:44;100957.53;;;1.12;100.00
9249;BME280;4660;41.768;26.198;2023-02-02T06:20:13;100975.78;;;1.18;100.00
9249;BME280;4660;41.768;26.198;2023-02-02T06:22:39;100912.41;;;0.96;100.00
9249;BME280;4660;41.768;26.198;2023-02-02T06:25:07;100955.19;;;1.06;100.00
9249;BME280;4660;41.768;26.198;2023-02-02T06:27:39;101030.41;;;1.57;100.00
9249;BME280;4660;41.768;26.198;2023-02-02T06:30:32;101063.28;;;1.72;100.00
9249;BME280;4660;41.768;26.198;2023-02-02T06:32:59;101003.88;;;1.40;100.00
9249;BME280;4660;41.768;26.198;2023-02-02T06:35:27;100968.88;;;1.33;100.00
9249;BME280;4660;41.768;26.198;2023-02-02T06:37:56;100962.06;;;1.10;100.00
9249;BME280;4660;41.768;26.198;2023-02-02T06:40:25;101000.94;;;1.46;100.00
9249;BME280;4660;41.768;26.198;2023-02-02T06:43:02;100982.13;;;1.33;100.00
9249;BME280;4660;41.768;26.198;2023-02-02T06:53:47;100994.84;;;1.78;100.00
9249;BME280;4660;41.768;26.198;2023-02-02T06:57:04;100984.16;;;2.14;100.00
9249;BME280;4660;41.768;26.198;2023-02-02T06:59:52;100998.22;;;2.32;100.00
9249;BME280;4660;41.768;26.198;2023-02-02T07:02:45;100994.41;;;2.54;100.00
9249;BME280;4660;41.768;26.198;2023-02-02T07:05:11;100941.91;;;2.10;100.00
9249;BME280;4660;41.768;26.198;2023-02-02T07:07:38;101033.28;;;2.72;100.00
9249;BME280;4660;41.768;26.198;2023-02-02T07:10:06;101025.44;;;2.53;100.00
9249;BME280;4660;41.768;26.198;2023-02-02T07:12:33;101025.78;;;2.63;100.00
9249;BME280;4660;41.768;26.198;2023-02-02T07:15:37;100935.13;;;2.37;100.00
9249;BME280;4660;41.768;26.198;2023-02-02T07:18:03;101013.91;;;3.01;100.00
9249;BME280;4660;41.768;26.198;2023-02-02T07:20:29;101054.59;;;3.49;100.00
9249;BME280;4660;41.768;26.198;2023-02-02T07:22:56;100947.09;;;3.23;100.00
9249;BME280;4660;41.768;26.198;2023-02-02T07:25:22;101029.25;;;3.74;100.00
9249;BME280;4660;41.768;26.198;2023-02-02T07:27:53;101089.88;;;4.29;100.00
9249;BME280;4660;41.768;26.198;2023-02-02T07:30:20;100984.72;;;3.92;100.00
9249;BME280;4660;41.768;26.198;2023-02-02T07:32:50;101013.00;;;4.08;100.00
9249;BME280;4660;41.768;26.198;2023-02-02T07:35:16;100999.31;;;4.14;100.00
9249;BME280;4660;41.768;26.198;2023-02-02T07:37:42;100989.91;;;4.09;100.00
9249;BME280;4660;41.768;26.198;2023-02-02T07:40:09;101069.00;;;4.80;100.00
9249;BME280;4660;41.768;26.198;2023-02-02T07:42:36;101057.91;;;5.14;100.00
9249;BME280;4660;41.768;26.198;2023-02-02T07:45:03;101048.09;;;5.15;100.00
9249;BME280;4660;41.768;26.198;2023-02-02T07:47:30;100961.09;;;4.85;100.00
9249;BME280;4660;41.768;26.198;2023-02-02T07:49:59;101084.63;;;5.68;100.00
9249;BME280;4660;41.768;26.198;2023-02-02T07:52:29;100947.63;;;4.74;100.00
9249;BME280;4660;41.768;26.198;2023-02-02T07:54:55;101020.91;;;5.49;100.00
9249;BME280;4660;41.768;26.198;2023-02-02T07:57:22;101071.41;;;6.06;100.00
9249;BME280;4660;41.768;26.198;2023-02-02T07:59:48;100996.81;;;5.91;100.00
9249;BME280;4660;41.768;26.198;2023-02-02T08:02:16;100976.41;;;5.50;100.00
9249;BME280;4660;41.768;26.198;2023-02-02T08:04:47;101082.91;;;6.47;100.00
9249;BME280;4660;41.768;26.198;2023-02-02T08:07:23;100952.16;;;5.93;100.00
9249;BME280;4660;41.768;26.198;2023-02-02T08:09:50;101052.13;;;6.54;100.00
9249;BME280;4660;41.768;26.198;2023-02-02T08:12:41;100941.34;;;5.82;100.00
9249;BME280;4660;41.768;26.198;2023-02-02T08:15:26;100951.88;;;5.97;100.00
9249;BME280;4660;41.768;26.198;2023-02-02T08:17:52;101029.03;;;6.66;100.00
9249;BME280;4660;41.768;26.198;2023-02-02T08:20:24;100986.47;;;6.50;100.00
9249;BME280;4660;41.768;26.198;2023-02-02T08:23:39;101083.06;;;7.20;100.00
9249;BME280;4660;41.768;26.198;2023-02-02T08:26:19;100993.50;;;6.76;100.00
9249;BME280;4660;41.768;26.198;2023-02-02T08:28:53;100988.75;;;6.93;100.00
9249;BME280;4660;41.768;26.198;2023-02-02T08:31:37;101048.34;;;7.31;100.00
9249;BME280;4660;41.768;26.198;2023-02-02T08:34:36;101017.31;;;7.29;100.00
9249;BME280;4660;41.768;26.198;2023-02-02T08:37:27;101083.75;;;7.95;100.00
9249;BME280;4660;41.768;26.198;2023-02-02T08:40:14;100975.19;;;7.43;100.00
9249;BME280;4660;41.768;26.198;2023-02-02T08:42:52;101017.41;;;7.75;100.00
9249;BME280;4660;41.768;26.198;2023-02-02T08:45:20;101052.56;;;8.30;100.00
9249;BME280;4660;41.768;26.198;2023-02-02T08:47:52;100964.38;;;7.91;100.00
9249;BME280;4660;41.768;26.198;2023-02-02T08:50:55;101024.19;;;8.38;100.00
9249;BME280;4660;41.768;26.198;2023-02-02T08:53:35;101040.56;;;8.58;100.00
9249;BME280;4660;41.768;26.198;2023-02-02T09:04:13;101068.97;;;10.03;92.74
9249;BME280;4660;41.768;26.198;2023-02-02T09:06:44;101063.66;;;10.12;86.93
9249;BME280;4660;41.768;26.198;2023-02-02T09:12:41;101060.69;;;10.47;79.89
9249;BME280;4660;41.768;26.198;2023-02-02T09:15:11;101008.38;;;10.31;78.48
9249;BME280;4660;41.768;26.198;2023-02-02T09:17:41;101064.16;;;10.80;68.90
9249;BME280;4660;41.768;26.198;2023-02-02T09:20:10;101056.41;;;10.66;67.23
9249;BME280;4660;41.768;26.198;2023-02-02T09:22:43;101046.22;;;10.69;68.09
9249;BME280;4660;41.768;26.198;2023-02-02T09:25:12;101056.63;;;10.84;68.07
9249;BME280;4660;41.768;26.198;2023-02-02T09:28:04;100932.94;;;10.11;64.94
9249;BME280;4660;41.768;26.198;2023-02-02T09:30:41;100974.47;;;10.49;63.64
9249;BME280;4660;41.768;26.198;2023-02-02T09:34:00;101046.25;;;11.10;64.14
9249;BME280;4660;41.768;26.198;2023-02-02T09:39:46;100924.88;;;10.42;59.69
9249;BME280;4660;41.768;26.198;2023-02-02T09:47:54;100982.59;;;10.99;63.31
9249;BME280;4660;41.768;26.198;2023-02-02T09:50:56;101029.72;;;11.34;62.04
9249;BME280;4660;41.768;26.198;2023-02-02T09:59:03;101002.81;;;11.34;59.04
9249;BME280;4660;41.768;26.198;2023-02-02T10:02:06;101014.59;;;11.52;58.22
9249;BME280;4660;41.768;26.198;2023-02-02T10:07:40;100877.00;;;10.76;61.64
9249;BME280;4660;41.768;26.198;2023-02-02T10:10:26;100999.59;;;11.59;61.53
9249;BME280;4660;41.768;26.198;2023-02-02T10:15:53;100985.25;;;11.68;59.21
9249;BME280;4660;41.768;26.198;2023-02-02T10:18:47;100980.84;;;11.67;58.37
9249;BME280;4660;41.768;26.198;2023-02-02T10:24:28;100959.88;;;11.90;57.13
9249;BME280;4660;41.768;26.198;2023-02-02T10:27:20;100987.97;;;11.88;58.60
9249;BME280;4660;41.768;26.198;2023-02-02T10:29:58;100972.78;;;11.96;56.58
9249;BME280;4660;41.768;26.198;2023-02-02T10:33:07;100846.84;;;11.40;57.11
9249;BME280;4660;41.768;26.198;2023-02-02T10:36:09;100894.91;;;11.54;54.90
9249;BME280;4660;41.768;26.198;2023-02-02T10:38:59;100919.00;;;11.85;55.57
9249;BME280;4660;41.768;26.198;2023-02-02T10:44:50;100948.91;;;12.11;59.37
9249;BME280;4660;41.768;26.198;2023-02-02T10:47:28;100935.84;;;12.06;52.83
9249;BME280;4660;41.768;26.198;2023-02-02T10:50:15;100949.19;;;12.18;54.29
9249;BME280;4660;41.768;26.198;2023-02-02T10:53:05;100930.44;;;12.06;51.12
9249;BME280;4660;41.768;26.198;2023-02-02T10:56:15;100878.56;;;11.85;52.08
9249;BME280;4660;41.768;26.198;2023-02-02T10:59:00;100902.47;;;12.17;49.72
9249;BME280;4660;41.768;26.198;2023-02-02T11:01:37;100894.56;;;12.06;50.08
9249;BME280;4660;41.768;26.198;2023-02-02T11:04:08;100931.63;;;12.41;47.86
9249;BME280;4660;41.768;26.198;2023-02-02T11:07:18;100787.97;;;11.55;49.09
9249;BME280;4660;41.768;26.198;2023-02-02T11:09:49;100850.59;;;11.96;47.46
9249;BME280;4660;41.768;26.198;2023-02-02T11:12:40;100798.59;;;11.66;47.36
9249;BME280;4660;41.768;26.198;2023-02-02T11:15:28;100808.47;;;11.95;48.83
9249;BME280;4660;41.768;26.198;2023-02-02T11:18:27;100832.09;;;12.10;50.87
9249;BME280;4660;41.768;26.198;2023-02-02T11:21:41;100905.72;;;12.58;48.13
9249;BME280;4660;41.768;26.198;2023-02-02T11:28:48;100907.00;;;12.54;46.23
9249;BME280;4660;41.768;26.198;2023-02-02T11:31:41;100875.81;;;12.42;46.13
9249;BME280;4660;41.768;26.198;2023-02-02T11:35:14;100810.34;;;12.12;45.71
9249;BME280;4660;41.768;26.198;2023-02-02T11:38:08;100780.75;;;12.02;46.99
9249;BME280;4660;41.768;26.198;2023-02-02T11:49:05;100751.69;;;12.42;45.59
9249;BME280;4660;41.768;26.198;2023-02-02T11:52:03;100852.09;;;12.90;41.05
9249;BME280;4660;41.768;26.198;2023-02-02T12:00:22;100856.06;;;13.32;43.01
9249;BME280;4660;41.768;26.198;2023-02-02T12:22:19;100848.69;;;13.42;36.66
9249;BME280;4660;41.768;26.198;2023-02-02T12:28:21;100726.56;;;12.94;40.09
9249;BME280;4660;41.768;26.198;2023-02-02T12:31:29;100836.13;;;13.51;36.82
9249;BME280;4660;41.768;26.198;2023-02-02T13:25:00;100824.38;;;13.42;42.09
9249;BME280;4660;41.768;26.198;2023-02-02T14:05:40;100705.69;;;12.61;46.63
9249;BME280;4660;41.768;26.198;2023-02-02T14:17:48;100665.22;;;12.25;46.64
9249;BME280;4660;41.768;26.198;2023-02-02T18:26:29;101098.13;;;5.79;100.00
9249;BME280;4660;41.768;26.198;2023-02-02T18:38:07;101047.19;;;5.56;100.00
9249;BME280;4660;41.768;26.198;2023-02-02T18:41:01;101038.91;;;5.60;100.00
9249;BME280;4660;41.768;26.198;2023-02-02T18:44:21;100996.59;;;5.54;100.00
9249;BME280;4660;41.768;26.198;2023-02-02T18:55:40;101003.66;;;5.55;100.00
9249;BME280;4660;41.768;26.198;2023-02-02T18:58:48;101065.75;;;5.84;100.00
9249;BME280;4660;41.768;26.198;2023-02-02T19:01:44;101026.00;;;5.67;100.00
9249;BME280;4660;41.768;26.198;2023-02-02T19:04:42;101067.88;;;6.06;100.00
9249;BME280;4660;41.768;26.198;2023-02-02T22:02:43;101073.94;;;4.43;100.00
9249;BME280;4660;41.768;26.198;2023-02-02T22:05:18;101166.19;;;4.88;100.00
9249;BME280;4660;41.768;26.198;2023-02-02T22:08:19;101129.91;;;4.72;100.00
9249;BME280;4660;41.768;26.198;2023-02-02T22:10:45;101150.28;;;4.87;100.00
9249;BME280;4660;41.768;26.198;2023-02-02T22:13:33;101180.38;;;5.17;100.00
9249;BME280;4660;41.768;26.198;2023-02-02T22:15:59;101188.03;;;5.23;100.00
9249;BME280;4660;41.768;26.198;2023-02-02T22:18:25;101126.22;;;4.88;100.00
9249;BME280;4660;41.768;26.198;2023-02-02T22:20:52;101117.94;;;4.93;100.00
9249;BME280;4660;41.768;26.198;2023-02-02T22:23:22;101181.72;;;5.24;100.00
9249;BME280;4660;41.768;26.198;2023-02-02T22:25:51;101103.06;;;4.75;100.00
9249;BME280;4660;41.768;26.198;2023-02-02T22:28:26;101183.44;;;4.97;100.00
9249;BME280;4660;41.768;26.198;2023-02-02T22:30:55;101179.63;;;5.01;100.00
9249;BME280;4660;41.768;26.198;2023-02-02T22:33:21;101194.78;;;5.01;100.00
9249;BME280;4660;41.768;26.198;2023-02-02T22:35:47;101175.03;;;4.89;100.00
9249;BME280;4660;41.768;26.198;2023-02-02T22:38:16;101160.59;;;4.93;100.00
9249;BME280;4660;41.768;26.198;2023-02-02T22:40:43;101135.44;;;4.97;100.00
9249;BME280;4660;41.768;26.198;2023-02-02T22:43:08;101152.59;;;5.07;100.00
9249;BME280;4660;41.768;26.198;2023-02-02T22:45:34;101151.63;;;4.80;100.00
9249;BME280;4660;41.768;26.198;2023-02-02T22:47:59;101160.00;;;4.88;100.00
9249;BME280;4660;41.768;26.198;2023-02-02T22:50:28;101148.66;;;4.84;100.00
9249;BME280;4660;41.768;26.198;2023-02-02T22:52:54;101160.56;;;4.79;100.00
9249;BME280;4660;41.768;26.198;2023-02-02T22:55:20;101109.63;;;4.69;100.00
9249;BME280;4660;41.768;26.198;2023-02-02T22:57:46;101141.03;;;4.92;100.00
9249;BME280;4660;41.768;26.198;2023-02-02T23:00:15;101152.97;;;5.01;100.00
9249;BME280;4660;41.768;26.198;2023-02-02T23:02:42;101141.81;;;4.94;100.00
9249;BME280;4660;41.768;26.198;2023-02-02T23:05:10;101143.72;;;4.92;100.00
9249;BME280;4660;41.768;26.198;2023-02-02T23:07:36;101139.56;;;4.44;100.00
9249;BME280;4660;41.768;26.198;2023-02-02T23:10:03;101131.13;;;4.66;100.00
9249;BME280;4660;41.768;26.198;2023-02-02T23:12:29;101143.13;;;4.73;100.00
9249;BME280;4660;41.768;26.198;2023-02-02T23:14:54;101143.13;;;4.73;100.00
9249;BME280;4660;41.768;26.198;2023-02-02T23:17:20;101147.69;;;4.71;100.00
9249;BME280;4660;41.768;26.198;2023-02-02T23:19:46;101153.47;;;4.63;100.00
9249;BME280;4660;41.768;26.198;2023-02-02T23:22:11;101140.13;;;4.49;100.00
9249;BME280;4660;41.768;26.198;2023-02-02T23:24:37;101143.00;;;4.16;100.00
9249;BME280;4660;41.768;26.198;2023-02-02T23:27:02;101134.56;;;4.24;100.00
9249;BME280;4660;41.768;26.198;2023-02-02T23:29:28;101128.59;;;4.04;100.00
9249;BME280;4660;41.768;26.198;2023-02-02T23:31:53;101164.84;;;4.37;100.00
9249;BME280;4660;41.768;26.198;2023-02-02T23:34:19;101153.38;;;4.51;100.00
9249;BME280;4660;41.768;26.198;2023-02-02T23:36:44;101155.50;;;4.60;100.00
9249;BME280;4660;41.768;26.198;2023-02-02T23:39:10;101135.06;;;4.30;100.00
9249;BME280;4660;41.768;26.198;2023-02-02T23:41:36;101167.69;;;4.34;100.00
9249;BME280;4660;41.768;26.198;2023-02-02T23:44:03;101145.31;;;4.22;100.00
9249;BME280;4660;41.768;26.198;2023-02-02T23:46:28;101136.22;;;4.10;100.00
9249;BME280;4660;41.768;26.198;2023-02-02T23:48:54;101145.28;;;3.92;100.00
9249;BME280;4660;41.768;26.198;2023-02-02T23:51:19;101178.94;;;3.93;100.00
9249;BME280;4660;41.768;26.198;2023-02-02T23:53:45;101182.03;;;3.85;100.00
9249;BME280;4660;41.768;26.198;2023-02-02T23:56:11;101174.66;;;3.75;100.00
9249;BME280;4660;41.768;26.198;2023-02-02T23:58:37;101173.81;;;3.74;100.00
